createdAt,value
2019-04-20T00:00:31.599Z,0.00
2019-04-20T00:01:31.996Z,0.00
2019-04-20T00:02:27.564Z,0.00
2019-04-20T00:03:34.389Z,0.00
2019-04-20T00:04:33.494Z,0.00
2019-04-20T00:05:27.578Z,0.00
2019-04-20T00:06:31.657Z,0.00
2019-04-20T00:07:32.430Z,0.00
2019-04-20T00:08:31.152Z,0.00
2019-04-20T00:09:31.291Z,0.00
2019-04-20T00:10:30.095Z,0.00
2019-04-20T00:11:39.899Z,0.00
2019-04-20T00:12:36.712Z,0.00
2019-04-20T00:13:37.882Z,0.00
2019-04-20T00:14:30.933Z,0.00
2019-04-20T00:15:28.267Z,0.00
2019-04-20T00:16:27.676Z,0.00
2019-04-20T00:17:28.579Z,0.00
2019-04-20T00:18:36.901Z,0.00
2019-04-20T00:19:35.502Z,0.00
2019-04-20T00:20:30.961Z,0.00
2019-04-20T00:21:28.951Z,0.00
2019-04-20T00:22:34.153Z,0.00
2019-04-20T00:23:33.447Z,0.00
2019-04-20T00:24:33.269Z,0.00
2019-04-20T00:25:44.312Z,0.00
2019-04-20T00:27:01.873Z,0.00
2019-04-20T00:27:50.202Z,0.00
2019-04-20T00:28:45.698Z,0.00
2019-04-20T00:29:47.948Z,0.00
2019-04-20T00:30:49.685Z,0.00
2019-04-20T00:31:43.185Z,0.00
2019-04-20T00:32:41.508Z,0.00
2019-04-20T00:33:43.600Z,0.00
2019-04-20T00:34:33.135Z,0.00
2019-04-20T00:35:29.135Z,0.00
2019-04-20T00:36:29.045Z,0.00
2019-04-20T00:37:28.031Z,0.00
2019-04-20T00:38:36.545Z,0.00
2019-04-20T00:39:28.071Z,0.00
2019-04-20T00:40:28.529Z,0.00
2019-04-20T00:41:28.106Z,0.00
2019-04-20T00:42:34.025Z,0.00
2019-04-20T00:43:32.156Z,0.00
2019-04-20T00:44:31.665Z,0.00
2019-04-20T00:45:31.492Z,0.00
2019-04-20T00:46:35.686Z,0.00
2019-04-20T00:47:37.283Z,0.00
2019-04-20T00:48:40.444Z,0.00
2019-04-20T00:49:46.795Z,0.00
2019-04-20T00:50:46.958Z,0.00
2019-04-20T00:51:45.551Z,0.00
2019-04-20T00:52:41.237Z,0.00
2019-04-20T00:53:34.750Z,0.00
2019-04-20T00:54:28.458Z,0.00
2019-04-20T00:55:29.266Z,0.00
2019-04-20T00:56:28.815Z,0.00
2019-04-20T00:57:38.072Z,0.00
2019-04-20T00:58:35.981Z,0.00
2019-04-20T00:59:42.924Z,0.00
2019-04-20T01:00:54.294Z,0.00
2019-04-20T01:01:50.380Z,0.00
2019-04-20T01:02:41.920Z,0.00
2019-04-20T01:03:42.289Z,0.00
2019-04-20T01:04:50.712Z,0.00
2019-04-20T01:05:53.000Z,0.00
2019-04-20T01:06:43.806Z,0.00
2019-04-20T01:07:37.132Z,0.00
2019-04-20T01:08:29.527Z,0.00
2019-04-20T01:09:28.787Z,0.00
2019-04-20T01:10:37.069Z,0.00
2019-04-20T01:11:33.943Z,0.00
2019-04-20T01:12:31.736Z,0.00
2019-04-20T01:13:30.137Z,0.00
2019-04-20T01:14:36.112Z,0.00
2019-04-20T01:15:37.547Z,0.00
2019-04-20T01:16:41.193Z,0.00
2019-04-20T01:17:28.760Z,0.00
2019-04-20T01:18:28.760Z,0.00
2019-04-20T01:19:28.754Z,0.00
2019-04-20T01:20:28.750Z,0.00
2019-04-20T01:21:31.498Z,0.00
2019-04-20T01:22:30.568Z,0.00
2019-04-20T01:23:37.755Z,0.00
2019-04-20T01:24:34.959Z,0.00
2019-04-20T01:25:33.795Z,0.00
2019-04-20T01:26:29.407Z,0.00
2019-04-20T01:27:42.967Z,0.00
2019-04-20T01:28:46.353Z,0.00
2019-04-20T01:29:36.203Z,0.00
2019-04-20T01:30:36.176Z,0.00
2019-04-20T01:31:36.154Z,0.00
2019-04-20T01:32:49.235Z,0.00
2019-04-20T01:33:41.322Z,0.00
2019-04-20T01:34:44.045Z,0.00
2019-04-20T01:35:47.258Z,0.00
2019-04-20T01:36:46.174Z,0.00
2019-04-20T01:37:39.447Z,0.00
2019-04-20T01:38:44.706Z,0.00
2019-04-20T01:39:37.095Z,0.00
2019-04-20T01:40:29.530Z,0.00
2019-04-20T01:41:29.086Z,0.00
2019-04-20T01:42:30.037Z,0.00
2019-04-20T01:43:29.171Z,0.00
2019-04-20T01:44:35.654Z,0.00
2019-04-20T01:45:34.165Z,0.00
2019-04-20T01:46:30.485Z,0.00
2019-04-20T01:47:32.319Z,0.00
2019-04-20T01:48:34.040Z,0.00
2019-04-20T01:49:33.240Z,0.00
2019-04-20T01:50:33.292Z,0.00
2019-04-20T01:51:37.361Z,0.00
2019-04-20T01:52:43.828Z,0.00
2019-04-20T01:53:46.493Z,0.00
2019-04-20T01:54:48.187Z,0.00
2019-04-20T01:55:46.640Z,0.00
2019-04-20T01:56:40.375Z,0.00
2019-04-20T01:57:43.855Z,0.00
2019-04-20T01:58:49.169Z,0.00
2019-04-20T01:59:40.270Z,0.00
2019-04-20T02:00:34.411Z,0.00
2019-04-20T02:01:33.886Z,0.00
2019-04-20T02:02:29.555Z,0.00
2019-04-20T02:03:36.875Z,0.00
2019-04-20T02:04:34.403Z,0.00
2019-04-20T02:05:32.754Z,0.00
2019-04-20T02:06:30.955Z,0.00
2019-04-20T02:07:35.535Z,0.00
2019-04-20T02:08:29.918Z,0.00
2019-04-20T02:09:31.172Z,0.00
2019-04-20T02:10:36.945Z,0.00
2019-04-20T02:11:34.282Z,0.00
2019-04-20T02:12:34.166Z,0.00
2019-04-20T02:13:38.997Z,0.00
2019-04-20T02:14:37.763Z,0.00
2019-04-20T02:15:38.133Z,0.00
2019-04-20T02:16:37.275Z,0.00
2019-04-20T02:17:37.397Z,0.00
2019-04-20T02:18:40.000Z,0.00
2019-04-20T02:19:43.237Z,0.00
2019-04-20T02:20:48.577Z,0.00
2019-04-20T02:21:49.755Z,0.00
2019-04-20T02:22:48.305Z,0.00
2019-04-20T02:23:38.718Z,0.00
2019-04-20T02:24:29.976Z,0.00
2019-04-20T02:25:31.045Z,0.00
2019-04-20T02:26:30.227Z,0.00
2019-04-20T02:27:36.713Z,0.00
2019-04-20T02:28:56.859Z,0.00
2019-04-20T02:29:57.052Z,0.00
2019-04-20T02:31:06.538Z,0.00
2019-04-20T02:32:10.300Z,0.00
2019-04-20T02:33:10.160Z,0.00
2019-04-20T02:34:03.969Z,0.00
2019-04-20T02:34:59.428Z,0.00
2019-04-20T02:38:15.246Z,0.00
2019-04-20T02:39:23.902Z,0.00
2019-04-20T02:40:00.854Z,0.00
2019-04-20T02:42:20.089Z,0.00
2019-04-20T02:43:21.648Z,0.00
2019-04-20T02:45:11.192Z,0.00
2019-04-20T02:46:14.944Z,0.00
2019-04-20T02:47:11.644Z,0.00
2019-04-20T02:48:01.014Z,0.00
2019-04-20T02:49:10.584Z,0.00
2019-04-20T02:49:56.681Z,0.00
2019-04-20T02:51:01.145Z,0.00
2019-04-20T02:53:05.927Z,0.00
2019-04-20T02:54:13.651Z,0.00
2019-04-20T02:55:09.252Z,0.00
2019-04-20T02:56:04.330Z,0.00
2019-04-20T02:58:05.269Z,0.00
2019-04-20T02:59:17.155Z,0.00
2019-04-20T03:00:05.598Z,0.00
2019-04-20T03:00:52.724Z,0.00
2019-04-20T03:01:51.741Z,0.00
2019-04-20T03:02:45.069Z,0.00
2019-04-20T03:03:36.529Z,0.00
2019-04-20T03:04:41.133Z,0.00
2019-04-20T03:05:42.436Z,0.00
2019-04-20T03:06:39.750Z,0.00
2019-04-20T03:07:50.448Z,0.00
2019-04-20T03:08:53.251Z,0.00
2019-04-20T03:09:50.123Z,0.00
2019-04-20T03:11:00.733Z,0.00
2019-04-20T03:11:58.287Z,0.00
2019-04-20T03:12:50.735Z,0.00
2019-04-20T03:13:50.220Z,0.00
2019-04-20T03:14:50.313Z,0.00
2019-04-20T03:15:48.152Z,0.00
2019-04-20T03:16:51.826Z,0.00
2019-04-20T03:17:51.315Z,0.00
2019-04-20T03:18:44.581Z,0.00
2019-04-20T03:19:46.377Z,0.00
2019-04-20T03:20:52.789Z,0.00
2019-04-20T03:21:52.878Z,0.00
2019-04-20T03:23:11.725Z,0.00
2019-04-20T03:24:02.104Z,0.00
2019-04-20T03:24:53.959Z,4.00
2019-04-20T03:25:55.554Z,4.00
2019-04-20T03:26:53.603Z,4.00
2019-04-20T03:27:46.119Z,4.00
2019-04-20T03:28:44.087Z,4.00
2019-04-20T03:29:52.588Z,4.00
2019-04-20T03:31:24.632Z,4.00
2019-04-20T03:32:15.461Z,4.00
2019-04-20T03:34:13.270Z,8.00
2019-04-20T03:35:05.585Z,12.00
2019-04-20T03:35:58.688Z,12.00
2019-04-20T03:37:04.682Z,12.00
2019-04-20T03:37:52.457Z,16.00
2019-04-20T03:38:47.995Z,16.00
2019-04-20T03:39:46.751Z,20.00
2019-04-20T03:40:45.273Z,24.00
2019-04-20T03:41:36.742Z,28.00
2019-04-20T03:42:30.989Z,32.00
2019-04-20T03:43:31.006Z,36.00
2019-04-20T03:44:34.207Z,40.00
2019-04-20T03:45:39.219Z,48.00
2019-04-20T03:46:40.734Z,56.00
2019-04-20T03:47:42.583Z,64.00
2019-04-20T03:48:46.825Z,72.00
2019-04-20T03:49:56.030Z,80.00
2019-04-20T03:50:50.416Z,96.00
2019-04-20T03:51:53.326Z,104.00
2019-04-20T03:52:51.326Z,120.00
2019-04-20T03:53:43.402Z,136.00
2019-04-20T03:54:43.383Z,148.00
2019-04-20T03:55:48.988Z,168.00
2019-04-20T03:56:46.259Z,184.00
2019-04-20T03:57:52.960Z,208.00
2019-04-20T03:58:47.077Z,228.00
2019-04-20T03:59:50.895Z,252.00
2019-04-20T04:00:50.788Z,272.00
2019-04-20T04:02:17.061Z,300.00
2019-04-20T04:03:03.514Z,324.00
2019-04-20T04:03:53.553Z,356.00
2019-04-20T04:04:49.623Z,388.00
2019-04-20T04:05:48.131Z,416.00
2019-04-20T04:06:41.621Z,448.00
2019-04-20T04:07:39.719Z,480.00
2019-04-20T04:08:38.989Z,516.00
2019-04-20T04:09:39.807Z,552.00
2019-04-20T04:10:50.523Z,588.00
2019-04-20T04:11:44.508Z,632.00
2019-04-20T04:12:37.993Z,672.00
2019-04-20T04:13:31.558Z,712.00
2019-04-20T04:14:32.490Z,756.00
2019-04-20T04:15:31.707Z,800.00
2019-04-20T04:16:37.238Z,840.00
2019-04-20T04:17:36.829Z,892.00
2019-04-20T04:18:38.460Z,944.00
2019-04-20T04:19:36.584Z,996.00
2019-04-20T04:20:39.743Z,1048.00
2019-04-20T04:21:50.101Z,1104.00
2019-04-20T04:22:50.250Z,1156.00
2019-04-20T04:23:48.699Z,1212.00
2019-04-20T04:24:39.972Z,1264.00
2019-04-20T04:25:47.532Z,1312.00
2019-04-20T04:26:47.935Z,1368.00
2019-04-20T04:27:48.313Z,1416.00
2019-04-20T04:28:51.956Z,1468.00
2019-04-20T04:29:51.271Z,1524.00
2019-04-20T04:30:53.376Z,1576.00
2019-04-20T04:32:00.349Z,1628.00
2019-04-20T04:33:09.062Z,1688.00
2019-04-20T04:33:56.943Z,1744.00
2019-04-20T04:34:48.648Z,1804.00
2019-04-20T04:35:48.197Z,1860.00
2019-04-20T04:36:57.640Z,1928.00
2019-04-20T04:37:50.307Z,2012.00
2019-04-20T04:38:53.479Z,2096.00
2019-04-20T04:39:54.089Z,2104.00
2019-04-20T04:41:06.465Z,2132.00
2019-04-20T04:42:01.867Z,2196.00
2019-04-20T04:42:52.510Z,2244.00
2019-04-20T04:43:49.862Z,2292.00
2019-04-20T04:44:44.705Z,2336.00
2019-04-20T04:45:33.379Z,2384.00
2019-04-20T04:46:33.963Z,2444.00
2019-04-20T04:47:32.620Z,2500.00
2019-04-20T04:48:36.675Z,2540.00
2019-04-20T04:49:36.878Z,2584.00
2019-04-20T04:50:33.167Z,2632.00
2019-04-20T04:51:43.826Z,2676.00
2019-04-20T04:52:42.909Z,2724.00
2019-04-20T04:53:44.291Z,2772.00
2019-04-20T04:54:42.262Z,2820.00
2019-04-20T04:55:41.671Z,2868.00
2019-04-20T04:56:33.528Z,2912.00
2019-04-20T04:57:32.643Z,2960.00
2019-04-20T04:58:32.138Z,3008.00
2019-04-20T04:59:32.165Z,3052.00
2019-04-20T05:00:33.975Z,3092.00
2019-04-20T05:01:34.406Z,3136.00
2019-04-20T05:02:38.046Z,3180.00
2019-04-20T05:03:58.194Z,3224.00
2019-04-20T05:04:58.941Z,3264.00
2019-04-20T05:05:51.852Z,3304.00
2019-04-20T05:06:45.790Z,3344.00
2019-04-20T05:07:43.556Z,3388.00
2019-04-20T05:08:39.642Z,3428.00
2019-04-20T05:09:32.324Z,3464.00
2019-04-20T05:10:32.977Z,3508.00
2019-04-20T05:11:32.398Z,3552.00
2019-04-20T05:12:34.978Z,3592.00
2019-04-20T05:13:41.892Z,3624.00
2019-04-20T05:14:45.126Z,3660.00
2019-04-20T05:16:50.099Z,3736.00
2019-04-20T05:17:53.221Z,3776.00
2019-04-20T05:18:57.973Z,3816.00
2019-04-20T05:19:55.285Z,3856.00
2019-04-20T05:20:54.715Z,3896.00
2019-04-20T05:21:58.726Z,3936.00
2019-04-20T05:22:45.728Z,3972.00
2019-04-20T05:23:46.166Z,4016.00
2019-04-20T05:24:48.148Z,4108.00
2019-04-20T05:25:56.988Z,4188.00
2019-04-20T05:26:57.928Z,4172.00
2019-04-20T05:27:52.410Z,4188.00
2019-04-20T05:28:43.937Z,4268.00
2019-04-20T05:29:34.962Z,4300.00
2019-04-20T05:30:39.523Z,4304.00
2019-04-20T05:31:41.409Z,4336.00
2019-04-20T05:32:44.082Z,4368.00
2019-04-20T05:33:57.152Z,4404.00
2019-04-20T05:35:02.487Z,4432.00
2019-04-20T05:35:58.887Z,4472.00
2019-04-20T05:36:53.096Z,4512.00
2019-04-20T05:38:05.138Z,4544.00
2019-04-20T05:38:54.378Z,4592.00
2019-04-20T05:39:54.688Z,4620.00
2019-04-20T05:40:51.382Z,4660.00
2019-04-20T05:41:48.279Z,4696.00
2019-04-20T05:42:52.618Z,4732.00
2019-04-20T05:43:46.808Z,4772.00
2019-04-20T05:44:55.700Z,4912.00
2019-04-20T05:45:45.100Z,5044.00
2019-04-20T05:46:56.870Z,5460.00
2019-04-20T05:47:48.374Z,5824.00
2019-04-20T05:49:00.225Z,5712.00
2019-04-20T05:49:50.087Z,5520.00
2019-04-20T05:50:53.165Z,5928.00
2019-04-20T05:52:18.554Z,6024.00
2019-04-20T05:52:59.858Z,5608.00
2019-04-20T05:53:50.351Z,5444.00
2019-04-20T05:54:58.437Z,5396.00
2019-04-20T05:55:53.288Z,5580.00
2019-04-20T05:56:55.123Z,5752.00
2019-04-20T05:57:58.003Z,5580.00
2019-04-20T05:58:49.593Z,5720.00
2019-04-20T05:59:55.692Z,6308.00
2019-04-20T06:00:57.061Z,7108.00
2019-04-20T06:02:00.447Z,8264.00
2019-04-20T06:02:53.938Z,8956.00
2019-04-20T06:03:48.785Z,9976.00
2019-04-20T06:05:57.880Z,10144.00
2019-04-20T06:06:58.187Z,11200.00
2019-04-20T06:07:54.783Z,9596.00
2019-04-20T06:08:53.757Z,10476.00
2019-04-20T06:09:54.542Z,11080.00
2019-04-20T06:10:56.347Z,11128.00
2019-04-20T06:12:07.490Z,8832.00
2019-04-20T06:12:52.977Z,7640.00
2019-04-20T06:13:47.167Z,8800.00
2019-04-20T06:14:48.249Z,10356.00
2019-04-20T06:15:54.838Z,11552.00
2019-04-20T06:16:55.778Z,10740.00
2019-04-20T06:17:52.832Z,9476.00
2019-04-20T06:18:47.035Z,13332.00
2019-04-20T06:19:57.925Z,16032.00
2019-04-20T06:20:52.546Z,19488.00
2019-04-20T06:21:57.485Z,24992.00
2019-04-20T06:22:56.296Z,31008.00
2019-04-20T06:23:56.700Z,33504.00
2019-04-20T06:25:15.038Z,34688.00
2019-04-20T06:26:04.078Z,36224.00
2019-04-20T06:27:57.151Z,34688.00
2019-04-20T06:28:46.546Z,36640.00
2019-04-20T06:29:51.381Z,36512.00
2019-04-20T06:30:51.120Z,37376.00
2019-04-20T06:31:53.464Z,36832.00
2019-04-20T06:32:52.008Z,35520.00
2019-04-20T06:34:08.823Z,35552.00
2019-04-20T06:34:53.752Z,35296.00
2019-04-20T06:36:07.641Z,36736.00
2019-04-20T06:36:55.825Z,37728.00
2019-04-20T06:38:00.610Z,38528.00
2019-04-20T06:39:02.533Z,38400.00
2019-04-20T06:39:55.950Z,35040.00
2019-04-20T06:41:13.990Z,33408.00
2019-04-20T06:42:08.361Z,32512.00
2019-04-20T06:42:58.634Z,31296.00
2019-04-20T06:44:50.858Z,29664.00
2019-04-20T06:47:05.587Z,26656.00
2019-04-20T06:48:01.099Z,26112.00
2019-04-20T06:48:58.716Z,25536.00
2019-04-20T06:49:54.834Z,26368.00
2019-04-20T06:50:49.263Z,27264.00
2019-04-20T06:51:52.760Z,27712.00
2019-04-20T06:52:55.665Z,29600.00
2019-04-20T06:53:49.925Z,31456.00
2019-04-20T06:54:48.683Z,31872.00
2019-04-20T06:56:04.286Z,33792.00
2019-04-20T06:56:54.575Z,34816.00
2019-04-20T06:57:55.068Z,34528.00
2019-04-20T06:59:01.762Z,35584.00
2019-04-20T06:59:57.332Z,36672.00
2019-04-20T07:00:56.359Z,36736.00
2019-04-20T07:02:17.201Z,36704.00
2019-04-20T07:02:54.372Z,36544.00
2019-04-20T07:04:57.589Z,36224.00
2019-04-20T07:06:06.367Z,35392.00
2019-04-20T07:07:02.382Z,33120.00
2019-04-20T07:08:00.799Z,36000.00
2019-04-20T07:09:01.776Z,36160.00
2019-04-20T07:10:09.838Z,36672.00
2019-04-20T07:11:02.246Z,38272.00
2019-04-20T07:11:50.500Z,38144.00
2019-04-20T07:12:49.317Z,37696.00
2019-04-20T07:13:46.100Z,37056.00
2019-04-20T07:14:46.962Z,38016.00
2019-04-20T07:15:49.415Z,41568.00
2019-04-20T07:16:51.171Z,41248.00
2019-04-20T07:17:57.799Z,41824.00
2019-04-20T07:18:55.209Z,39648.00
2019-04-20T07:19:53.903Z,39008.00
2019-04-20T07:21:03.783Z,42336.00
2019-04-20T07:23:09.453Z,46496.00
2019-04-20T07:24:04.778Z,46208.00
2019-04-20T07:24:56.845Z,45056.00
2019-04-20T07:25:54.256Z,45312.00
2019-04-20T07:26:55.461Z,45536.00
2019-04-20T07:27:53.697Z,46624.00
2019-04-20T07:29:01.925Z,47584.00
2019-04-20T07:29:59.007Z,48288.00
2019-04-20T07:30:57.952Z,47008.00
2019-04-20T07:31:49.998Z,46400.00
2019-04-20T07:33:10.476Z,48704.00
2019-04-20T07:33:56.790Z,49664.00
2019-04-20T07:34:55.720Z,49824.00
2019-04-20T07:35:50.808Z,51456.00
2019-04-20T07:37:22.017Z,50240.00
2019-04-20T07:38:59.743Z,49824.00
2019-04-20T07:40:04.297Z,51392.00
2019-04-20T07:40:56.179Z,50816.00
2019-04-20T07:42:00.680Z,48960.00
2019-04-20T07:42:55.286Z,49632.00
2019-04-20T07:44:03.413Z,50464.00
2019-04-20T07:45:01.244Z,49600.00
2019-04-20T07:45:56.910Z,48352.00
2019-04-20T07:47:02.833Z,49728.00
2019-04-20T07:48:01.758Z,50976.00
2019-04-20T07:48:54.311Z,50912.00
2019-04-20T07:49:52.620Z,48960.00
2019-04-20T07:50:49.571Z,47104.00
2019-04-20T07:51:39.081Z,49120.00
2019-04-20T07:52:46.234Z,49632.00
2019-04-20T07:53:57.544Z,47968.00
2019-04-20T07:55:19.267Z,49056.00
2019-04-20T07:55:58.169Z,50432.00
2019-04-20T07:56:57.623Z,54272.00
2019-04-20T07:57:52.849Z,52832.00
2019-04-20T07:58:44.240Z,51840.00
2019-04-20T07:59:55.955Z,54560.00
2019-04-20T08:01:05.740Z,55968.00
2019-04-20T08:02:04.336Z,53216.00
2019-04-20T08:02:58.680Z,34720.00
2019-04-20T08:03:55.697Z,13036.00
2019-04-20T08:04:52.408Z,9936.00
2019-04-20T08:05:46.601Z,9852.00
2019-04-20T08:06:45.429Z,9712.00
2019-04-20T08:07:45.270Z,9660.00
2019-04-20T08:08:53.073Z,9688.00
2019-04-20T08:09:43.837Z,9696.00
2019-04-20T08:10:54.279Z,9624.00
2019-04-20T08:12:02.466Z,9556.00
2019-04-20T08:13:02.186Z,9368.00
2019-04-20T08:14:01.996Z,9348.00
2019-04-20T08:15:05.307Z,9292.00
2019-04-20T08:17:13.808Z,9332.00
2019-04-20T08:17:59.943Z,9364.00
2019-04-20T08:18:55.761Z,9392.00
2019-04-20T08:19:50.846Z,9408.00
2019-04-20T08:20:57.968Z,9424.00
2019-04-20T08:21:57.077Z,9452.00
2019-04-20T08:22:58.648Z,9476.00
2019-04-20T08:23:55.567Z,9524.00
2019-04-20T08:24:52.238Z,9588.00
2019-04-20T08:25:46.788Z,9676.00
2019-04-20T08:26:45.402Z,9768.00
2019-04-20T08:27:36.344Z,9864.00
2019-04-20T08:28:46.507Z,9948.00
2019-04-20T08:29:48.364Z,10032.00
2019-04-20T08:30:53.256Z,10136.00
2019-04-20T08:31:55.987Z,10220.00
2019-04-20T08:32:50.618Z,10224.00
2019-04-20T08:34:07.760Z,10128.00
2019-04-20T08:35:02.264Z,10116.00
2019-04-20T08:36:02.808Z,10188.00
2019-04-20T08:36:56.678Z,10276.00
2019-04-20T08:38:19.968Z,10332.00
2019-04-20T08:39:15.056Z,10388.00
2019-04-20T08:40:05.466Z,10468.00
2019-04-20T08:40:54.919Z,10516.00
2019-04-20T08:41:56.381Z,10572.00
2019-04-20T08:43:02.484Z,10596.00
2019-04-20T08:44:06.433Z,10632.00
2019-04-20T08:46:01.838Z,10636.00
2019-04-20T08:47:06.121Z,10740.00
2019-04-20T08:48:05.063Z,10884.00
2019-04-20T08:48:56.820Z,10884.00
2019-04-20T08:50:03.495Z,10952.00
2019-04-20T08:51:02.358Z,11060.00
2019-04-20T08:52:08.280Z,11240.00
2019-04-20T08:53:12.354Z,11348.00
2019-04-20T08:53:57.047Z,11408.00
2019-04-20T08:54:57.806Z,11448.00
2019-04-20T08:55:49.086Z,11544.00
2019-04-20T08:56:44.827Z,11624.00
2019-04-20T08:57:37.918Z,11624.00
2019-04-20T08:58:37.056Z,11636.00
2019-04-20T08:59:40.104Z,11708.00
2019-04-20T09:00:45.660Z,11736.00
2019-04-20T09:01:37.771Z,11796.00
2019-04-20T09:02:40.616Z,11836.00
2019-04-20T09:03:46.193Z,11844.00
2019-04-20T09:04:45.036Z,11804.00
2019-04-20T09:05:48.981Z,11672.00
2019-04-20T09:06:54.633Z,11584.00
2019-04-20T09:07:49.008Z,11632.00
2019-04-20T09:08:50.687Z,11592.00
2019-04-20T09:10:00.859Z,11440.00
2019-04-20T09:10:56.847Z,11392.00
2019-04-20T09:11:54.317Z,11440.00
2019-04-20T09:12:54.177Z,11468.00
2019-04-20T09:13:43.245Z,11472.00
2019-04-20T09:14:39.443Z,11460.00
2019-04-20T09:15:38.335Z,11472.00
2019-04-20T09:16:44.288Z,11516.00
2019-04-20T09:17:45.161Z,11580.00
2019-04-20T09:18:47.680Z,11616.00
2019-04-20T09:19:47.045Z,11704.00
2019-04-20T09:20:47.517Z,11776.00
2019-04-20T09:21:46.251Z,11876.00
2019-04-20T09:22:51.888Z,11972.00
2019-04-20T09:23:50.753Z,12072.00
2019-04-20T09:24:57.638Z,12184.00
2019-04-20T09:26:10.387Z,12300.00
2019-04-20T09:26:54.565Z,12448.00
2019-04-20T09:27:43.571Z,12632.00
2019-04-20T09:28:47.943Z,12880.00
2019-04-20T09:29:54.603Z,13184.00
2019-04-20T09:30:47.724Z,13452.00
2019-04-20T09:31:56.147Z,13784.00
2019-04-20T09:32:56.605Z,14148.00
2019-04-20T09:34:00.416Z,14572.00
2019-04-20T09:35:16.072Z,14912.00
2019-04-20T09:35:53.562Z,15456.00
2019-04-20T09:36:49.327Z,15892.00
2019-04-20T09:37:54.385Z,16140.00
2019-04-20T09:38:51.570Z,16088.00
2019-04-20T09:40:00.885Z,16156.00
2019-04-20T09:40:57.172Z,16328.00
2019-04-20T09:41:58.901Z,16344.00
2019-04-20T09:42:38.076Z,16112.00
2019-04-20T09:43:38.981Z,16108.00
2019-04-20T09:44:43.419Z,16120.00
2019-04-20T09:45:43.954Z,15944.00
2019-04-20T09:46:45.277Z,15680.00
2019-04-20T09:47:43.544Z,15592.00
2019-04-20T09:48:42.777Z,15252.00
2019-04-20T09:49:48.117Z,14968.00
2019-04-20T09:50:55.394Z,14500.00
2019-04-20T09:51:56.391Z,14076.00
2019-04-20T09:53:01.500Z,13724.00
2019-04-20T09:53:48.218Z,13328.00
2019-04-20T09:54:56.361Z,12916.00
2019-04-20T09:55:59.212Z,12680.00
2019-04-20T09:57:00.649Z,12216.00
2019-04-20T09:59:01.297Z,11468.00
2019-04-20T09:59:57.521Z,11420.00
2019-04-20T10:00:54.097Z,11440.00
2019-04-20T10:01:45.334Z,11528.00
2019-04-20T10:02:39.903Z,11612.00
2019-04-20T10:03:38.789Z,11696.00
2019-04-20T10:04:39.692Z,11904.00
2019-04-20T10:05:38.529Z,12352.00
2019-04-20T10:06:39.412Z,12964.00
2019-04-20T10:07:40.177Z,13520.00
2019-04-20T10:08:43.589Z,14408.00
2019-04-20T10:09:43.538Z,16584.00
2019-04-20T10:10:42.043Z,31456.00
2019-04-20T10:11:41.790Z,52128.00
2019-04-20T10:12:39.742Z,61664.00
2019-04-20T10:13:38.715Z,52832.00
2019-04-20T10:14:38.741Z,36704.00
2019-04-20T10:15:39.616Z,31616.00
2019-04-20T10:16:39.938Z,45888.00
2019-04-20T10:17:38.817Z,59264.00
2019-04-20T10:18:43.785Z,60928.00
2019-04-20T10:19:40.077Z,44384.00
2019-04-20T10:20:41.417Z,33088.00
2019-04-20T10:21:38.912Z,39680.00
2019-04-20T10:22:38.936Z,56160.00
2019-04-20T10:23:38.962Z,63264.00
2019-04-20T10:24:38.986Z,50368.00
2019-04-20T10:25:40.336Z,28224.00
2019-04-20T10:26:39.043Z,17208.00
2019-04-20T10:27:41.783Z,27040.00
2019-04-20T10:28:39.436Z,47552.00
2019-04-20T10:29:39.717Z,64512.00
2019-04-20T10:30:39.148Z,66400.00
2019-04-20T10:31:46.607Z,68672.00
2019-04-20T10:32:43.043Z,72992.00
2019-04-20T10:33:39.617Z,69760.00
2019-04-20T10:34:39.260Z,67904.00
2019-04-20T10:35:39.453Z,67712.00
2019-04-20T10:36:39.578Z,66304.00
2019-04-20T10:37:39.767Z,64704.00
2019-04-20T10:38:40.206Z,66112.00
2019-04-20T10:39:40.426Z,67232.00
2019-04-20T10:40:51.222Z,68544.00
2019-04-20T10:41:48.586Z,70432.00
2019-04-20T10:42:39.498Z,70624.00
2019-04-20T10:43:40.677Z,70080.00
2019-04-20T10:44:40.889Z,67872.00
2019-04-20T10:45:39.595Z,76832.00
2019-04-20T10:46:40.692Z,75168.00
2019-04-20T10:47:41.016Z,69824.00
2019-04-20T10:48:45.932Z,56576.00
2019-04-20T10:49:40.761Z,52288.00
2019-04-20T10:50:40.833Z,50368.00
2019-04-20T10:51:39.994Z,60768.00
2019-04-20T10:52:39.838Z,45856.00
2019-04-20T10:53:40.389Z,59072.00
2019-04-20T10:54:40.611Z,62400.00
2019-04-20T10:55:39.982Z,65536.00
2019-04-20T10:56:41.393Z,65600.00
2019-04-20T10:57:40.044Z,64736.00
2019-04-20T10:58:40.154Z,67040.00
2019-04-20T10:59:41.446Z,67296.00
2019-04-20T11:00:40.095Z,69280.00
2019-04-20T11:01:40.138Z,70464.00
2019-04-20T11:02:42.598Z,67232.00
2019-04-20T11:03:40.694Z,63872.00
2019-04-20T11:04:40.895Z,64160.00
2019-04-20T11:05:40.350Z,66432.00
2019-04-20T11:06:40.587Z,64512.00
2019-04-20T11:07:40.801Z,65472.00
2019-04-20T11:08:40.470Z,65504.00
2019-04-20T11:09:40.747Z,65792.00
2019-04-20T11:10:51.116Z,69664.00
2019-04-20T11:11:40.707Z,73888.00
2019-04-20T11:12:40.518Z,74464.00
2019-04-20T11:13:41.448Z,68256.00
2019-04-20T11:14:43.553Z,72096.00
2019-04-20T11:15:40.625Z,76672.00
2019-04-20T11:16:40.659Z,75968.00
2019-04-20T11:17:41.677Z,75008.00
2019-04-20T11:18:40.730Z,74720.00
2019-04-20T11:19:41.140Z,75104.00
2019-04-20T11:20:41.484Z,74816.00
2019-04-20T11:21:40.878Z,73856.00
2019-04-20T11:22:42.126Z,74656.00
2019-04-20T11:23:40.914Z,77664.00
2019-04-20T11:24:40.949Z,78112.00
2019-04-20T11:25:42.075Z,77472.00
2019-04-20T11:26:42.289Z,75936.00
2019-04-20T11:27:41.061Z,75392.00
2019-04-20T11:28:42.032Z,78400.00
2019-04-20T11:29:42.158Z,77952.00
2019-04-20T11:30:41.173Z,77184.00
2019-04-20T11:31:46.392Z,77888.00
2019-04-20T11:32:42.181Z,77504.00
2019-04-20T11:33:42.426Z,78144.00
2019-04-20T11:34:42.514Z,77568.00
2019-04-20T11:35:43.280Z,73760.00
2019-04-20T11:36:41.400Z,71296.00
2019-04-20T11:37:42.795Z,69024.00
2019-04-20T11:38:42.743Z,54624.00
2019-04-20T11:39:41.510Z,47872.00
2019-04-20T11:40:42.282Z,46784.00
2019-04-20T11:41:41.592Z,61696.00
2019-04-20T11:42:41.698Z,64704.00
2019-04-20T11:43:41.952Z,57152.00
2019-04-20T11:44:42.447Z,53280.00
2019-04-20T11:45:42.712Z,62368.00
2019-04-20T11:46:42.812Z,55584.00
2019-04-20T11:47:43.166Z,56224.00
2019-04-20T11:48:41.914Z,68448.00
2019-04-20T11:49:41.902Z,66944.00
2019-04-20T11:50:43.305Z,74240.00
2019-04-20T11:51:41.982Z,68896.00
2019-04-20T11:52:45.846Z,65472.00
2019-04-20T11:53:42.720Z,70528.00
2019-04-20T11:54:42.258Z,62400.00
2019-04-20T11:55:42.350Z,63712.00
2019-04-20T11:56:45.138Z,63648.00
2019-04-20T11:57:43.145Z,63808.00
2019-04-20T11:58:42.804Z,70176.00
2019-04-20T11:59:43.143Z,67264.00
2019-04-20T12:00:52.213Z,71520.00
2019-04-20T12:01:49.352Z,74016.00
2019-04-20T12:02:44.370Z,75584.00
2019-04-20T12:03:52.975Z,75808.00
2019-04-20T12:04:49.221Z,74688.00
2019-04-20T12:05:46.627Z,72672.00
2019-04-20T12:06:43.304Z,74304.00
2019-04-20T12:07:42.720Z,74208.00
2019-04-20T12:08:43.870Z,72352.00
2019-04-20T12:09:43.735Z,70048.00
2019-04-20T12:10:44.712Z,66080.00
2019-04-20T12:11:56.214Z,69696.00
2019-04-20T12:12:47.875Z,71264.00
2019-04-20T12:13:42.817Z,70592.00
2019-04-20T12:14:42.949Z,68448.00
2019-04-20T12:15:43.429Z,61728.00
2019-04-20T12:16:43.754Z,63776.00
2019-04-20T12:17:43.903Z,64640.00
2019-04-20T12:18:44.239Z,66240.00
2019-04-20T12:19:43.855Z,68288.00
2019-04-20T12:20:43.025Z,66528.00
2019-04-20T12:21:43.063Z,66272.00
2019-04-20T12:22:44.214Z,64704.00
2019-04-20T12:23:44.433Z,64768.00
2019-04-20T12:24:44.428Z,64736.00
2019-04-20T12:25:44.615Z,64864.00
2019-04-20T12:26:43.246Z,64096.00
2019-04-20T12:27:50.742Z,64224.00
2019-04-20T12:28:43.391Z,65632.00
2019-04-20T12:29:43.632Z,68000.00
2019-04-20T12:30:43.894Z,68864.00
2019-04-20T12:31:50.060Z,69504.00
2019-04-20T12:32:50.464Z,68736.00
2019-04-20T12:33:44.313Z,69504.00